Time;durP1;ratioP1;P1;durP2;ratioP2;P2;SDS_P1;SDS_P2;PMS_P1;PMS_P2;Temp;Humidity;BMP_temperature;BMP_pressure;BME280_temperature;BME280_humidity;BME280_pressure;Samples;Min_cycle;Max_cycle;Signal;HPM_P1;HPM_P2
2021/09/01 04:51:40;;;;;;;10.60;4.30;;;;;;;25.37;43.53;98945.98;110738;1220;568284;-56
2021/09/01 04:54:06;;;;;;;6.30;3.90;;;;;;;25.15;44.61;98949.35;110169;1221;45825;-56
2021/09/01 04:56:31;;;;;;;8.50;4.50;;;;;;;25.02;44.41;98954.13;110458;1220;45880;-58
2021/09/01 04:58:57;;;;;;;6.90;4.40;;;;;;;24.90;44.65;98958.29;110309;1219;81451;-56
2021/09/01 05:01:22;;;;;;;6.90;4.40;;;;;;;24.81;44.72;98958.03;64646;1220;3262820;-57
2021/09/01 05:04:42;;;;;;;13.00;5.20;;;;;;;24.77;44.71;98961.20;34063;1222;3027436;-53
2021/09/01 05:07:12;;;;;;;19.80;4.60;;;;;;;24.68;44.97;98960.77;27221;1222;3026041;-51
2021/09/01 05:09:41;;;;;;;8.60;4.70;;;;;;;24.54;45.26;98960.52;26857;1220;3149224;-57
2021/09/01 05:12:10;;;;;;;13.20;4.90;;;;;;;24.47;45.55;98960.69;27048;1221;3052302;-58
2021/09/01 05:14:39;;;;;;;12.40;4.80;;;;;;;24.42;45.66;98961.14;27429;1218;3026324;-57
2021/09/01 05:17:08;;;;;;;9.00;4.30;;;;;;;24.39;45.48;98960.79;26906;1221;3025609;-58
2021/09/01 05:19:38;;;;;;;11.60;4.30;;;;;;;24.37;45.23;98958.46;26928;1220;3028606;-56
2021/09/01 05:22:07;;;;;;;12.60;4.80;;;;;;;24.35;45.18;98958.89;27057;1222;3052002;-57
2021/09/01 05:25:00;;;;;;;9.70;4.60;;;;;;;24.32;44.92;98956.16;26896;1226;3026593;-57
2021/09/01 05:27:31;;;;;;;14.70;5.00;;;;;;;24.30;44.91;98955.35;26873;1222;3054801;-57
2021/09/01 05:30:17;;;;;;;14.80;4.50;;;;;;;24.28;44.99;98957.52;26896;1226;3054593;-56
2021/09/01 05:32:49;;;;;;;14.70;5.10;;;;;;;24.27;44.75;98957.48;26921;1225;3026336;-58
2021/09/01 05:35:18;;;;;;;11.80;4.20;;;;;;;24.27;44.93;98958.02;26956;1221;3025731;-60
2021/09/01 05:37:48;;;;;;;16.90;4.00;;;;;;;24.26;44.77;98956.92;26896;1226;3025637;-58
2021/09/01 05:40:18;;;;;;;11.30;3.80;;;;;;;24.24;44.71;98958.52;26859;1225;3025914;-54
2021/09/01 05:42:46;;;;;;;14.10;4.00;;;;;;;24.24;44.87;98954.48;26916;1225;3051039;-56
2021/09/01 05:45:15;;;;;;;12.60;3.80;;;;;;;24.24;44.76;98950.88;26882;1225;3028835;-57
2021/09/01 05:47:44;;;;;;;12.00;4.30;;;;;;;24.26;44.75;98950.16;26875;1229;3067723;-56
2021/09/01 05:50:13;;;;;;;10.40;3.80;;;;;;;24.27;44.85;98947.65;26878;1226;3026088;-55
2021/09/01 05:52:42;;;;;;;13.90;3.70;;;;;;;24.27;44.69;98946.70;26905;1225;3052034;-56
2021/09/01 05:55:11;;;;;;;10.60;4.10;;;;;;;24.29;44.78;98943.16;26854;1225;3026853;-56
2021/09/01 05:57:41;;;;;;;10.20;3.90;;;;;;;24.30;44.73;98941.77;26909;1225;3057922;-56
2021/09/01 06:00:14;;;;;;;13.50;3.70;;;;;;;24.29;44.61;98944.52;26945;1224;3028255;-55
2021/09/01 06:02:49;;;;;;;7.60;3.10;;;;;;;24.29;44.65;98939.89;26879;1229;3026168;-56
2021/09/01 06:05:19;;;;;;;11.50;3.10;;;;;;;24.30;44.41;98943.83;26972;1219;3049639;-56
2021/09/01 06:07:58;;;;;;;7.90;2.90;;;;;;;24.30;44.09;98943.20;27038;1222;3026272;-57
2021/09/01 06:10:30;;;;;;;6.50;2.80;;;;;;;24.28;44.15;98944.31;27072;1226;3054301;-58
2021/09/01 06:13:10;;;;;;;6.70;3.30;;;;;;;24.27;44.47;98948.77;27062;1225;3028250;-57
2021/09/01 06:15:40;;;;;;;11.10;3.70;;;;;;;24.25;44.75;98948.92;27056;1220;3056298;-57
2021/09/01 06:18:10;;;;;;;14.60;3.90;;;;;;;24.24;44.87;98952.70;27047;1222;3026284;-56
2021/09/01 06:20:39;;;;;;;5.40;3.10;;;;;;;24.22;44.60;98957.02;26948;1222;3028777;-56
2021/09/01 06:23:08;;;;;;;11.00;3.40;;;;;;;24.20;44.72;98956.66;27015;1222;3055777;-56
2021/09/01 06:25:41;;;;;;;15.20;3.50;;;;;;;24.19;44.69;98958.90;26989;1222;3026309;-55
2021/09/01 06:28:10;;;;;;;11.60;2.70;;;;;;;24.17;44.54;98956.44;27049;1222;3026633;-57
2021/09/01 06:30:40;;;;;;;5.00;2.60;;;;;;;24.15;44.21;98955.23;27088;1220;3026343;-57
2021/09/01 06:33:08;;;;;;;4.90;2.60;;;;;;;24.15;44.29;98963.45;27004;1217;3028983;-56
2021/09/01 06:35:38;;;;;;;7.30;2.50;;;;;;;24.15;44.41;98969.59;27051;1222;3070240;-54
2021/09/01 06:38:08;;;;;;;5.30;2.50;;;;;;;24.15;44.55;98968.65;26951;1222;3025747;-53
2021/09/01 06:40:37;;;;;;;9.70;3.00;;;;;;;24.16;44.54;98963.16;27060;1222;3051821;-56
2021/09/01 06:43:07;;;;;;;4.40;2.70;;;;;;;24.18;44.45;98960.09;27037;1225;3025927;-55
2021/09/01 06:45:37;;;;;;;4.40;2.10;;;;;;;24.18;44.52;98961.13;27008;1220;3025837;-54
2021/09/01 06:48:06;;;;;;;3.40;2.30;;;;;;;24.20;44.40;98958.08;27051;1222;3025858;-56
2021/09/01 06:50:35;;;;;;;6.80;2.60;;;;;;;24.21;44.24;98957.92;27010;1222;3026732;-55
2021/09/01 06:53:04;;;;;;;6.80;2.30;;;;;;;24.22;44.23;98961.33;27044;1222;3050092;-54
2021/09/01 06:55:33;;;;;;;3.60;2.20;;;;;;;24.22;43.92;98962.73;27012;1226;3026267;-56
2021/09/01 06:58:02;;;;;;;4.40;2.30;;;;;;;24.23;43.82;98967.10;26969;1222;3067233;-55
2021/09/01 07:00:31;;;;;;;4.50;2.00;;;;;;;24.25;43.76;98972.27;26993;1219;3026142;-57
2021/09/01 07:03:00;;;;;;;4.20;2.00;;;;;;;24.25;43.63;98965.84;27035;1222;3051944;-55
2021/09/01 07:05:31;;;;;;;3.00;2.10;;;;;;;24.24;43.44;98962.86;27039;1219;3027198;-55
2021/09/01 07:08:16;;;;;;;5.10;2.10;;;;;;;24.23;43.48;98963.31;26973;1222;3057977;-56
2021/09/01 07:10:45;;;;;;;3.10;1.70;;;;;;;24.23;43.52;98957.44;27056;1219;3051866;-56
2021/09/01 07:13:14;;;;;;;4.40;2.00;;;;;;;24.22;43.75;98958.21;26976;1220;3026335;-58
2021/09/01 07:15:44;;;;;;;2.10;1.70;;;;;;;24.22;43.63;98953.55;26996;1220;3057810;-54
2021/09/01 07:18:13;;;;;;;5.00;1.80;;;;;;;24.21;43.42;98952.59;27045;1222;3027184;-55
2021/09/01 07:20:43;;;;;;;2.70;2.00;;;;;;;24.17;43.40;98950.08;26972;1219;3026431;-56
2021/09/01 07:23:13;;;;;;;2.80;1.80;;;;;;;24.16;43.13;98945.79;26947;1222;3057365;-56
2021/09/01 07:25:41;;;;;;;3.40;1.80;;;;;;;24.17;42.88;98954.05;26943;1222;3026754;-54
2021/09/01 07:28:10;;;;;;;2.30;1.70;;;;;;;24.16;42.32;98951.23;27017;1219;3026752;-57
2021/09/01 07:30:40;;;;;;;4.30;1.60;;;;;;;24.14;42.47;98944.15;27059;1222;3055574;-55
2021/09/01 07:33:09;;;;;;;2.70;1.40;;;;;;;24.14;42.74;98949.65;26943;1220;3026461;-57
2021/09/01 07:35:38;;;;;;;4.30;1.70;;;;;;;24.15;42.50;98945.37;27022;1219;3051523;-57
2021/09/01 07:38:07;;;;;;;1.90;1.40;;;;;;;24.17;42.82;98953.76;27028;1219;3025942;-56
2021/09/01 07:40:36;;;;;;;3.80;1.50;;;;;;;24.19;42.72;98950.43;27022;1218;3028584;-56
2021/09/01 07:43:05;;;;;;;2.00;1.60;;;;;;;24.22;42.07;98949.38;26924;1219;3049805;-56
2021/09/01 07:45:34;;;;;;;2.30;1.50;;;;;;;24.23;41.74;98951.63;27044;1218;3026315;-57
2021/09/01 07:48:04;;;;;;;4.80;1.80;;;;;;;24.20;40.82;98949.77;26985;1222;3054472;-60
2021/09/01 11:46:36;;;;;;;4.50;1.80;;;;;;;26.47;31.55;98799.38;33717;1221;3099941;-58
2021/09/01 11:49:07;;;;;;;5.40;1.90;;;;;;;26.81;31.18;98797.14;27243;1225;3051851;-60
2021/09/01 11:51:43;;;;;;;3.60;2.10;;;;;;;27.22;30.63;98800.02;26946;1220;3051508;-54
2021/09/01 11:54:13;;;;;;;5.60;2.80;;;;;;;27.55;30.66;98798.27;26933;1222;3026681;-56
2021/09/01 11:56:43;;;;;;;10.40;3.70;;;;;;;27.82;30.58;98797.95;26911;1228;3025761;-58
2021/09/01 11:59:13;;;;;;;6.90;3.40;;;;;;;28.11;30.16;98794.94;26894;1222;3026045;-59
2021/09/01 12:02:00;;;;;;;11.20;3.50;;;;;;;28.33;30.21;98790.55;27011;1222;3026245;-58
2021/09/01 12:04:30;;;;;;;7.70;3.40;;;;;;;28.59;29.30;98788.09;26940;1222;3052159;-55
2021/09/01 12:06:59;;;;;;;7.20;3.60;;;;;;;28.79;29.08;98779.27;26385;1217;3376823;-57
2021/09/01 12:09:28;;;;;;;10.10;3.70;;;;;;;28.90;29.34;98778.96;27082;1219;3026104;-55
2021/09/01 12:12:00;;;;;;;6.40;3.20;;;;;;;28.93;29.92;98776.21;27098;1219;3048385;-56
2021/09/01 12:14:30;;;;;;;5.60;2.70;;;;;;;29.02;30.08;98773.14;27111;1215;3026577;-61
2021/09/01 12:17:15;;;;;;;4.00;1.70;;;;;;;28.88;28.36;98769.17;27050;1219;3115591;-58
2021/09/01 12:19:49;;;;;;;4.00;1.70;;;;;;;28.98;27.68;98760.30;23303;1219;8581108;-59
2021/09/01 12:22:41;;;;;;;7.60;1.80;;;;;;;29.15;27.85;98758.85;27161;1226;3049600;-59
2021/09/01 12:25:17;;;;;;;8.20;2.60;;;;;;;29.30;29.22;98752.02;26441;1215;3163940;-57
2021/09/01 12:28:04;;;;;;;4.20;2.40;;;;;;;29.53;28.72;98756.10;26968;1221;3070437;-57
2021/09/01 12:30:35;;;;;;;8.00;2.30;;;;;;;29.64;29.06;98749.76;26973;1224;3054070;-56
2021/09/01 12:33:09;;;;;;;4.70;2.20;;;;;;;29.61;28.66;98745.68;26955;1225;3028425;-57
2021/09/01 12:35:38;;;;;;;6.70;2.20;;;;;;;29.75;28.52;98740.70;26975;1225;3048748;-54
2021/09/01 12:38:08;;;;;;;5.40;2.20;;;;;;;29.86;28.70;98740.36;26967;1225;3026431;-57
2021/09/01 12:40:38;;;;;;;4.30;2.70;;;;;;;29.90;28.72;98737.52;26941;1224;3026686;-61
2021/09/01 12:43:09;;;;;;;8.00;2.60;;;;;;;29.94;28.33;98734.06;26932;1227;3028228;-55
2021/09/01 12:45:44;;;;;;;4.70;2.30;;;;;;;30.00;27.98;98735.86;26917;1221;3027022;-60
2021/09/01 12:48:19;;;;;;;7.00;2.30;;;;;;;29.97;27.92;98731.30;26964;1225;3049497;-56
2021/09/01 12:50:49;;;;;;;7.20;2.30;;;;;;;29.83;27.81;98734.05;26970;1221;3070876;-58
2021/09/01 12:53:23;;;;;;;6.00;2.50;;;;;;;29.99;27.92;98729.83;26933;1224;3026474;-58
2021/09/01 12:55:53;;;;;;;3.60;2.20;;;;;;;30.11;27.69;98730.41;26958;1224;3054598;-57
2021/09/01 12:58:22;;;;;;;7.40;2.30;;;;;;;30.24;27.99;98724.66;26959;1226;3026290;-60
2021/09/01 13:00:52;;;;;;;5.40;2.20;;;;;;;30.37;26.86;98723.23;26901;1225;3026166;-57
2021/09/01 13:03:20;;;;;;;4.20;2.00;;;;;;;30.36;26.79;98717.08;26961;1224;3051111;-59
2021/09/01 13:05:50;;;;;;;4.20;2.10;;;;;;;30.22;26.92;98713.35;26942;1222;3026959;-58
2021/09/01 13:08:19;;;;;;;6.60;2.60;;;;;;;30.30;27.46;98709.48;26892;1225;3050248;-58
2021/09/01 13:10:48;;;;;;;6.70;2.40;;;;;;;30.42;26.45;98706.52;26872;1227;3027032;-58
2021/09/01 13:13:17;;;;;;;8.20;2.30;;;;;;;30.57;26.29;98702.39;26975;1226;3057940;-59
2021/09/01 13:15:53;;;;;;;7.40;2.10;;;;;;;30.64;26.21;98707.23;26918;1224;3050332;-59
2021/09/01 13:18:22;;;;;;;5.10;2.00;;;;;;;30.65;26.43;98702.73;26995;1221;3029133;-59
2021/09/01 13:20:55;;;;;;;3.30;2.00;;;;;;;30.74;26.23;98702.33;26923;1227;3050525;-58
2021/09/01 13:23:24;;;;;;;6.90;2.00;;;;;;;30.78;26.19;98702.50;26892;1223;3027791;-56
2021/09/01 13:25:55;;;;;;;8.60;2.10;;;;;;;30.70;26.17;98698.19;26950;1219;3028422;-58
2021/09/01 13:28:24;;;;;;;3.30;2.20;;;;;;;30.59;26.31;98694.46;27037;1225;3026592;-57
2021/09/01 13:30:53;;;;;;;6.90;2.80;;;;;;;30.43;27.15;98695.08;26921;1223;3026467;-56
2021/09/01 13:33:23;;;;;;;4.80;2.60;;;;;;;30.25;27.61;98688.20;26922;1222;3026474;-58
2021/09/01 13:35:52;;;;;;;4.40;2.20;;;;;;;30.15;27.88;98688.77;26966;1227;3052499;-59
2021/09/01 13:38:21;;;;;;;7.70;2.10;;;;;;;30.00;28.28;98684.46;26930;1225;3026258;-56
2021/09/01 13:40:50;;;;;;;4.90;2.30;;;;;;;29.75;28.54;98680.56;26925;1220;3048455;-56
2021/09/01 13:43:19;;;;;;;4.40;2.30;;;;;;;29.49;28.73;98680.41;26913;1220;3027684;-55
2021/09/01 13:46:28;;;;;;;5.80;2.60;;;;;;;29.20;29.10;98673.95;33583;1220;3122400;-57
2021/09/01 13:48:59;;;;;;;5.80;2.30;;;;;;;28.97;29.56;98671.02;26881;1224;3147362;-55
2021/09/01 13:51:28;;;;;;;9.10;2.30;;;;;;;28.64;30.33;98669.71;26890;1226;3026170;-54
2021/09/01 13:54:02;;;;;;;4.40;2.50;;;;;;;28.56;30.02;98660.27;26907;1224;3025815;-56
2021/09/01 13:56:31;;;;;;;5.60;1.80;;;;;;;28.48;30.10;98655.67;26885;1224;3026034;-55
2021/09/01 13:59:01;;;;;;;8.60;2.40;;;;;;;28.60;30.10;98653.68;26897;1224;3026575;-53
2021/09/01 14:01:30;;;;;;;6.70;2.50;;;;;;;28.72;30.23;98650.88;26877;1229;3057734;-58
2021/09/01 14:04:01;;;;;;;9.00;3.00;;;;;;;28.73;30.27;98649.10;26832;1226;3026896;-54
2021/09/01 14:06:30;;;;;;;8.30;3.00;;;;;;;28.74;30.49;98646.11;26849;1224;3026125;-55
2021/09/01 14:09:00;;;;;;;11.90;4.20;;;;;;;28.98;29.86;98643.17;26856;1231;3028595;-55
2021/09/01 14:11:29;;;;;;;8.70;3.00;;;;;;;29.19;29.91;98642.58;26884;1225;3049080;-54
2021/09/01 14:13:58;;;;;;;8.60;2.50;;;;;;;29.34;29.63;98640.47;26876;1221;3026223;-56
2021/09/01 14:16:27;;;;;;;8.20;2.90;;;;;;;29.50;29.44;98637.65;26875;1228;3059008;-55
2021/09/01 14:18:56;;;;;;;7.30;2.50;;;;;;;29.60;29.40;98633.04;26847;1223;3027025;-57
2021/09/01 14:21:26;;;;;;;4.30;2.10;;;;;;;29.76;29.11;98630.95;27261;1223;3026953;-58
2021/09/01 14:23:55;;;;;;;8.70;2.40;;;;;;;29.89;28.70;98626.38;27778;1223;3027174;-58
2021/09/01 14:26:24;;;;;;;8.00;2.10;;;;;;;29.92;28.77;98619.49;27763;1223;3048898;-59
2021/09/01 14:28:53;;;;;;;4.90;2.20;;;;;;;30.06;28.70;98619.48;27758;1223;3025481;-57
2021/09/01 14:31:22;;;;;;;9.70;2.40;;;;;;;30.19;28.45;98614.42;27277;1222;3056195;-58
2021/09/01 14:33:51;;;;;;;11.00;3.40;;;;;;;30.27;28.24;98606.77;26828;1222;3029265;-56
2021/09/01 14:36:20;;;;;;;12.00;5.00;;;;;;;30.29;28.24;98608.27;26833;1228;3051100;-58
2021/09/01 14:38:49;;;;;;;13.50;6.00;;;;;;;30.38;27.96;98603.81;26882;1222;3026246;-59
2021/09/01 14:41:18;;;;;;;14.40;5.40;;;;;;;30.43;28.07;98603.92;26877;1224;3051674;-59
2021/09/01 14:43:47;;;;;;;10.20;5.00;;;;;;;30.43;27.61;98607.60;26850;1223;3026457;-59
2021/09/01 14:46:16;;;;;;;8.40;4.20;;;;;;;30.46;27.44;98603.11;26868;1223;3026429;-59
2021/09/01 14:48:45;;;;;;;6.40;3.00;;;;;;;30.43;27.37;98596.23;26930;1224;3053517;-58
2021/09/01 14:51:14;;;;;;;6.50;3.10;;;;;;;30.45;27.23;98596.71;26867;1230;3027136;-58
2021/09/01 14:53:43;;;;;;;8.80;2.70;;;;;;;30.35;27.32;98595.38;26840;1230;3047981;-58
2021/09/01 14:56:12;;;;;;;9.90;4.30;;;;;;;30.32;27.22;98594.73;26893;1223;3028343;-60
2021/09/01 14:58:41;;;;;;;8.20;3.10;;;;;;;30.10;27.42;98592.27;26817;1224;3070251;-58
2021/09/01 15:01:10;;;;;;;7.30;2.90;;;;;;;29.87;27.80;98590.63;26856;1223;3026794;-56
2021/09/01 15:03:40;;;;;;;7.80;3.20;;;;;;;29.54;28.40;98591.95;26863;1223;3049441;-57
2021/09/01 15:06:09;;;;;;;8.20;2.90;;;;;;;29.23;28.89;98593.38;26848;1230;3026580;-63
2021/09/01 15:08:41;;;;;;;6.20;3.30;;;;;;;28.89;29.37;98595.83;26820;1223;3026441;-60
2021/09/01 15:11:11;;;;;;;9.10;3.70;;;;;;;28.61;29.94;98594.45;26891;1223;3049616;-57
2021/09/01 15:13:42;;;;;;;10.90;3.50;;;;;;;28.41;30.30;98593.91;26868;1231;3026268;-57
2021/09/01 15:16:11;;;;;;;8.30;4.10;;;;;;;28.16;30.81;98589.70;26896;1231;3026808;-57
2021/09/01 15:18:39;;;;;;;10.90;3.90;;;;;;;27.96;31.44;98585.58;26836;1224;3029419;-57
2021/09/01 15:21:09;;;;;;;17.80;4.50;;;;;;;27.80;32.05;98585.05;26850;1227;3070581;-56
2021/09/01 15:23:38;;;;;;;6.90;4.00;;;;;;;27.59;32.46;98578.64;26869;1225;3026663;-56
2021/09/01 15:26:09;;;;;;;8.30;4.10;;;;;;;27.42;32.59;98582.55;26842;1223;3027890;-60
2021/09/01 15:28:39;;;;;;;11.00;3.40;;;;;;;27.26;32.79;98577.98;26859;1223;3026862;-58
2021/09/01 15:31:08;;;;;;;7.30;3.30;;;;;;;27.15;32.95;98573.48;26828;1231;3026468;-57
2021/09/01 15:33:37;;;;;;;10.60;3.40;;;;;;;27.05;33.13;98573.77;26860;1222;3027397;-59
2021/09/01 15:36:09;;;;;;;14.20;4.10;;;;;;;26.91;33.56;98572.42;26860;1231;3053662;-61
2021/09/01 15:38:37;;;;;;;10.70;3.70;;;;;;;26.82;33.86;98575.11;26895;1223;3026329;-59
2021/09/01 15:41:06;;;;;;;10.70;3.40;;;;;;;26.72;34.18;98570.46;26896;1225;3051674;-60
2021/09/01 15:43:38;;;;;;;8.50;3.10;;;;;;;26.60;34.35;98570.95;26880;1223;3026433;-56
2021/09/01 15:46:09;;;;;;;7.00;3.10;;;;;;;26.54;34.47;98569.22;26859;1230;3026406;-60
2021/09/01 15:49:01;;;;;;;7.60;3.40;;;;;;;26.46;34.62;98564.05;26839;1231;3025670;-57
2021/09/01 15:51:35;;;;;;;7.90;2.80;;;;;;;26.34;34.79;98560.12;26922;1224;3052262;-60
2021/09/01 15:54:07;;;;;;;9.50;2.90;;;;;;;26.24;35.04;98558.36;26878;1228;3050591;-60
2021/09/01 15:56:38;;;;;;;10.40;3.00;;;;;;;26.16;35.05;98553.95;26870;1223;3026197;-60
2021/09/01 15:59:07;;;;;;;10.10;3.20;;;;;;;26.11;35.42;98552.06;26856;1223;3026518;-58
2021/09/01 16:01:38;;;;;;;8.40;3.20;;;;;;;26.03;35.64;98546.96;26814;1227;3026571;-58
2021/09/01 16:04:08;;;;;;;11.70;3.10;;;;;;;25.92;35.81;98543.20;26845;1230;3028235;-58
2021/09/01 16:06:37;;;;;;;10.70;3.30;;;;;;;25.86;35.92;98540.79;26818;1229;3027145;-58
2021/09/01 16:09:06;;;;;;;12.30;2.90;;;;;;;25.82;36.09;98540.80;26843;1223;3026469;-58
2021/09/01 16:11:36;;;;;;;13.00;3.20;;;;;;;25.73;36.28;98543.64;26845;1223;3027799;-58
2021/09/01 16:14:11;;;;;;;11.40;3.30;;;;;;;25.65;36.48;98541.06;26826;1232;3057776;-56
2021/09/01 16:16:42;;;;;;;5.60;3.30;;;;;;;25.58;36.54;98543.56;26842;1231;3049541;-60
2021/09/01 16:19:37;;;;;;;10.40;3.10;;;;;;;25.50;36.82;98546.33;26926;1224;3028107;-56
2021/09/01 16:22:09;;;;;;;9.70;3.60;;;;;;;25.42;36.97;98546.23;26846;1231;3052712;-57
2021/09/01 16:24:38;;;;;;;11.30;3.80;;;;;;;25.37;37.15;98549.60;26872;1230;3026400;-58
2021/09/01 16:27:08;;;;;;;15.00;4.50;;;;;;;25.29;37.32;98549.50;26802;1232;3026483;-59
2021/09/01 16:29:36;;;;;;;19.00;4.40;;;;;;;25.26;37.09;98552.37;26801;1229;3049232;-60
2021/09/01 16:32:06;;;;;;;10.30;3.50;;;;;;;25.21;37.36;98554.69;26814;1228;3027532;-60
2021/09/01 16:34:35;;;;;;;14.50;4.00;;;;;;;25.20;37.38;98556.77;26872;1227;3054408;-55
2021/09/01 16:37:04;;;;;;;12.90;3.40;;;;;;;25.17;37.21;98561.02;26821;1227;3026724;-58
2021/09/01 16:39:34;;;;;;;9.00;2.90;;;;;;;25.14;37.09;98562.73;26778;1232;3027448;-58
2021/09/01 16:42:04;;;;;;;7.30;3.00;;;;;;;25.13;36.73;98562.88;26847;1230;3028900;-60
2021/09/01 16:44:34;;;;;;;13.00;3.40;;;;;;;25.14;36.64;98565.70;26853;1230;3027228;-62
2021/09/01 16:47:03;;;;;;;11.50;5.60;;;;;;;25.06;36.57;98564.06;26803;1224;3025791;-61
2021/09/01 16:49:32;;;;;;;8.60;5.50;;;;;;;24.93;36.51;98566.16;26889;1224;3047682;-62
2021/09/01 16:52:05;;;;;;;13.20;5.40;;;;;;;24.88;35.19;98563.31;26898;1224;3028826;-60
2021/09/01 16:54:36;;;;;;;14.60;5.00;;;;;;;24.83;34.96;98566.48;26879;1224;3027550;-59
2021/09/01 16:57:24;;;;;;;13.90;5.20;;;;;;;24.78;35.31;98568.73;26866;1222;3027707;-59
2021/09/01 17:00:03;;;;;;;14.70;7.20;;;;;;;24.67;36.96;98594.91;26861;1223;3050024;-58
2021/09/01 17:02:38;;;;;;;14.30;6.30;;;;;;;24.51;39.20;98603.25;26857;1224;3052704;-57
2021/09/01 17:05:07;;;;;;;18.30;7.30;;;;;;;24.26;40.92;98593.72;26880;1228;3026114;-58
2021/09/01 17:07:37;;;;;;;16.50;6.90;;;;;;;24.14;41.07;98587.61;26818;1231;3028332;-59
2021/09/01 17:10:26;;;;;;;14.80;7.00;;;;;;;23.82;42.50;98592.60;26857;1222;3049162;-60
2021/09/01 17:13:15;;;;;;;16.80;6.90;;;;;;;23.62;43.19;98590.53;26844;1228;3054901;-58
2021/09/01 17:16:04;;;;;;;16.20;6.30;;;;;;;23.55;43.13;98586.25;26839;1227;3052470;-59
2021/09/01 17:22:03;;;;;;;12.50;5.50;;;;;;;23.59;43.52;98589.12;33813;1221;3027436;-69
2021/09/01 17:24:35;;;;;;;15.00;4.70;;;;;;;23.31;44.68;98595.93;27115;1223;3026382;-67
2021/09/01 17:27:05;;;;;;;10.80;4.70;;;;;;;23.09;45.42;98593.88;26917;1221;3026038;-67
2021/09/01 17:29:49;;;;;;;15.60;5.10;;;;;;;22.94;46.12;98592.52;26920;1221;3027114;-68
2021/09/01 17:32:18;;;;;;;;;;;;;;;22.84;46.26;98590.83;26939;1222;3051744;-69
2021/09/01 17:34:49;;;;;;;9.30;4.10;;;;;;;22.84;46.49;98588.27;26914;1229;3026184;-67
2021/09/01 17:37:19;;;;;;;13.80;4.30;;;;;;;22.79;46.42;98586.29;26851;1223;3026517;-68
2021/09/01 17:40:02;;;;;;;7.50;4.00;;;;;;;22.69;46.18;98584.83;26941;1228;3070097;-73
2021/09/01 17:42:33;;;;;;;7.30;4.00;;;;;;;22.64;46.50;98585.77;26969;1218;3026426;-73
2021/09/01 17:45:03;;;;;;;8.90;4.60;;;;;;;22.65;46.37;98589.27;27197;1227;3026312;-70
2021/09/01 17:47:32;;;;;;;8.00;4.20;;;;;;;22.51;47.69;98587.61;27519;1220;3026342;-69
2021/09/01 17:50:01;;;;;;;8.00;4.20;;;;;;;22.55;47.26;98583.87;26985;1219;3026201;-71
2021/09/01 17:52:30;;;;;;;8.20;4.50;;;;;;;22.58;46.97;98583.48;26984;1221;3053623;-69
2021/09/01 17:54:59;;;;;;;7.70;3.90;;;;;;;22.51;47.66;98591.95;26932;1220;3028740;-74
2021/09/01 17:57:28;;;;;;;13.80;4.70;;;;;;;22.43;48.08;98599.82;26925;1220;3048637;-69
2021/09/01 17:59:58;;;;;;;13.40;4.90;;;;;;;22.32;48.75;98593.60;26947;1220;3027072;-71
2021/09/01 18:02:27;;;;;;;10.00;4.30;;;;;;;22.26;48.63;98581.67;26993;1220;3028476;-68
2021/09/01 18:04:56;;;;;;;10.80;4.30;;;;;;;22.22;48.05;98578.80;26934;1220;3048137;-68
2021/09/01 18:07:25;;;;;;;12.90;4.60;;;;;;;22.20;48.41;98576.45;27111;1220;3027966;-64
2021/09/01 18:09:54;;;;;;;12.80;5.00;;;;;;;22.24;48.25;98581.65;27296;1219;3067116;-68
2021/09/01 18:12:26;;;;;;;10.60;4.30;;;;;;;22.22;48.45;98575.38;27298;1220;3027946;-65
2021/09/01 18:14:55;;;;;;;8.60;4.00;;;;;;;22.14;48.10;98569.04;27181;1219;3049761;-71
2021/09/01 18:17:40;;;;;;;10.40;4.10;;;;;;;22.02;48.95;98567.52;26900;1227;3071102;-72
2021/09/01 18:20:09;;;;;;;8.60;3.70;;;;;;;21.98;49.08;98567.14;26923;1227;3025775;-68
2021/09/01 18:22:38;;;;;;;9.30;3.50;;;;;;;22.06;48.95;98567.36;26938;1219;3026158;-72
2021/09/01 18:25:08;;;;;;;9.40;3.70;;;;;;;22.03;48.83;98570.41;26933;1220;3025985;-69
2021/09/01 18:27:37;;;;;;;7.30;3.80;;;;;;;22.01;48.52;98569.60;26956;1219;3048955;-68
2021/09/01 18:30:06;;;;;;;10.50;4.10;;;;;;;22.01;48.69;98565.16;26971;1220;3026483;-73
2021/09/01 18:32:35;;;;;;;7.00;4.00;;;;;;;22.06;48.90;98562.94;26924;1219;3068190;-72
2021/09/01 18:35:09;;;;;;;8.90;3.70;;;;;;;22.11;48.35;98559.49;26942;1221;3047893;-67
2021/09/01 18:37:38;;;;;;;10.30;4.90;;;;;;;22.11;49.75;98560.94;26902;1221;3026450;-73
2021/09/01 18:40:08;;;;;;;9.50;4.90;;;;;;;22.13;49.56;98562.04;26926;1220;3070130;-73
2021/09/01 18:42:38;;;;;;;7.50;4.60;;;;;;;22.16;50.06;98559.65;26989;1220;3027606;-67
2021/09/01 18:45:07;;;;;;;9.50;3.70;;;;;;;22.14;47.71;98558.19;26915;1220;3026144;-70
2021/09/01 18:47:37;;;;;;;9.20;3.60;;;;;;;22.12;47.73;98554.36;26941;1220;3026759;-69
2021/09/01 18:50:06;;;;;;;6.10;3.20;;;;;;;22.16;47.13;98552.64;26937;1220;3028613;-73
2021/09/01 18:52:34;;;;;;;9.80;4.90;;;;;;;22.17;47.00;98551.53;26932;1219;3051447;-75
2021/09/01 18:55:05;;;;;;;6.90;4.60;;;;;;;22.20;47.04;98546.99;26928;1220;3028240;-73
2021/09/01 18:57:34;;;;;;;11.90;4.20;;;;;;;22.21;47.18;98550.02;26978;1219;3025638;-70
2021/09/01 19:00:06;;;;;;;12.10;3.80;;;;;;;22.18;48.43;98545.86;26904;1220;3027639;-68
2021/09/01 19:02:37;;;;;;;6.00;3.70;;;;;;;22.18;48.80;98546.39;26965;1220;3052363;-71
2021/09/01 19:05:06;;;;;;;9.20;4.40;;;;;;;22.20;48.80;98550.44;26902;1225;3026524;-75
2021/09/01 19:07:37;;;;;;;42.10;21.30;;;;;;;22.21;50.54;98544.74;26898;1220;3026426;-69
2021/09/01 19:10:13;;;;;;;42.40;20.90;;;;;;;22.21;51.22;98546.52;26926;1220;3051342;-71
2021/09/01 19:12:51;;;;;;;38.40;18.90;;;;;;;22.18;51.53;98540.85;26917;1229;3057966;-71
2021/09/01 19:15:23;;;;;;;44.20;19.80;;;;;;;22.16;52.32;98541.37;26935;1221;3049302;-74
2021/09/01 19:18:02;;;;;;;35.80;15.80;;;;;;;22.16;52.00;98540.30;26925;1220;3055722;-70
2021/09/01 19:20:31;;;;;;;32.90;14.50;;;;;;;22.18;51.69;98542.98;26940;1220;3025902;-71
2021/09/01 19:23:00;;;;;;;29.70;12.70;;;;;;;22.17;51.55;98536.98;26960;1226;3025743;-72
2021/09/01 19:25:29;;;;;;;24.20;13.90;;;;;;;22.18;51.73;98539.16;26931;1220;3054798;-71
2021/09/01 19:28:21;;;;;;;23.70;14.90;;;;;;;22.16;52.67;98536.55;26945;1220;3050578;-75
2021/09/01 19:30:49;;;;;;;30.00;14.80;;;;;;;22.13;52.84;98540.67;26933;1221;3027249;-69
2021/09/01 19:33:19;;;;;;;25.40;13.20;;;;;;;22.14;52.74;98540.02;26917;1221;3026616;-74
2021/09/01 19:35:48;;;;;;;26.40;13.50;;;;;;;22.15;52.53;98539.01;26899;1222;3049735;-71
2021/09/01 19:38:17;;;;;;;25.80;11.90;;;;;;;22.15;52.20;98539.61;26921;1224;3025672;-70
2021/09/01 19:40:47;;;;;;;31.70;14.50;;;;;;;22.17;51.96;98537.34;26966;1220;3028542;-68
2021/09/01 19:43:18;;;;;;;34.10;16.20;;;;;;;22.17;51.51;98537.18;26915;1219;3048903;-75
2021/09/01 19:45:47;;;;;;;33.00;15.30;;;;;;;22.18;51.41;98534.17;26961;1220;3025699;-72
2021/09/01 19:48:18;;;;;;;37.40;14.40;;;;;;;22.19;51.49;98535.17;26932;1219;3025943;-71
2021/09/01 19:50:47;;;;;;;32.00;15.10;;;;;;;22.20;51.27;98533.78;26949;1220;3050129;-71
2021/09/01 19:53:17;;;;;;;40.00;15.30;;;;;;;22.21;50.81;98533.14;26946;1219;3026123;-68
2021/09/01 19:55:46;;;;;;;37.60;16.60;;;;;;;22.21;50.45;98528.31;26989;1220;3053491;-63
2021/09/01 19:58:15;;;;;;;33.20;15.90;;;;;;;22.19;50.98;98531.77;27018;1220;3027099;-70
2021/09/01 20:00:46;;;;;;;32.80;15.00;;;;;;;22.21;49.71;98532.38;26966;1227;3049181;-66
2021/09/01 20:03:15;;;;;;;42.20;18.40;;;;;;;22.20;49.49;98534.83;26956;1222;3026753;-66
2021/09/01 20:05:44;;;;;;;38.10;15.90;;;;;;;22.12;49.60;98529.96;26958;1226;3054922;-72
2021/09/01 20:08:13;;;;;;;36.20;15.90;;;;;;;22.13;49.76;98523.94;26924;1227;3026579;-73
2021/09/01 20:10:59;;;;;;;43.30;17.90;;;;;;;22.13;49.94;98528.25;26915;1221;3055061;-63
2021/09/01 20:13:30;;;;;;;42.60;17.40;;;;;;;22.07;50.40;98526.09;26907;1224;3026078;-67
2021/09/01 20:16:00;;;;;;;34.10;15.60;;;;;;;22.04;50.59;98527.75;26930;1220;3026798;-70
2021/09/01 20:18:29;;;;;;;27.30;12.90;;;;;;;22.03;50.82;98527.33;26950;1221;3026343;-67
2021/09/01 20:20:58;;;;;;;31.90;16.90;;;;;;;21.98;51.02;98526.83;26910;1222;3025781;-70
2021/09/01 20:23:27;;;;;;;31.20;15.90;;;;;;;21.89;51.32;98531.30;26898;1227;3067181;-68